createdAt,value
2019-03-20T00:00:12.494Z,30.56
2019-03-20T00:00:51.232Z,30.56
2019-03-20T00:01:27.339Z,30.56
2019-03-20T00:02:03.340Z,30.55
2019-03-20T00:02:39.230Z,30.55
2019-03-20T00:03:15.214Z,30.55
2019-03-20T00:03:51.338Z,30.50
2019-03-20T00:04:27.362Z,30.50
2019-03-20T00:05:03.380Z,30.53
2019-03-20T00:05:39.296Z,30.57
2019-03-20T00:06:15.341Z,30.57
2019-03-20T00:06:51.401Z,30.57
2019-03-20T00:07:27.287Z,30.61
2019-03-20T00:08:03.270Z,30.61
2019-03-20T00:08:39.179Z,30.65
2019-03-20T00:09:15.412Z,30.65
2019-03-20T00:09:51.268Z,30.67
2019-03-20T00:10:27.596Z,30.69
2019-03-20T00:11:03.621Z,30.69
2019-03-20T00:11:39.537Z,30.66
2019-03-20T00:12:15.484Z,30.67
2019-03-20T00:12:51.375Z,30.67
2019-03-20T00:13:27.317Z,30.75
2019-03-20T00:14:03.199Z,30.79
2019-03-20T00:14:39.127Z,30.82
2019-03-20T00:15:15.252Z,30.85
2019-03-20T00:15:51.166Z,30.83
2019-03-20T00:16:27.123Z,30.83
2019-03-20T00:17:04.092Z,30.85
2019-03-20T00:17:40.078Z,30.87
2019-03-20T00:18:16.093Z,30.94
2019-03-20T00:18:51.972Z,30.97
2019-03-20T00:19:28.051Z,30.95
2019-03-20T00:20:03.938Z,30.98
2019-03-20T00:20:39.807Z,31.05
2019-03-20T00:21:16.080Z,31.05
2019-03-20T00:21:52.008Z,31.06
2019-03-20T00:22:27.972Z,31.06
2019-03-20T00:23:04.027Z,31.06
2019-03-20T00:23:40.005Z,31.15
2019-03-20T00:24:15.951Z,31.15
2019-03-20T00:24:51.995Z,31.15
2019-03-20T00:25:27.910Z,31.23
2019-03-20T00:26:03.967Z,31.23
2019-03-20T00:26:39.827Z,31.25
2019-03-20T00:27:15.708Z,31.27
2019-03-20T00:27:51.585Z,31.24
2019-03-20T00:28:27.462Z,31.29
2019-03-20T00:29:03.379Z,31.30
2019-03-20T00:29:39.247Z,31.27
2019-03-20T00:30:15.306Z,31.32
2019-03-20T00:30:51.205Z,31.36
2019-03-20T00:31:27.074Z,31.36
2019-03-20T00:32:02.945Z,31.38
2019-03-20T00:32:38.823Z,31.35
2019-03-20T00:33:14.719Z,31.43
2019-03-20T00:33:50.696Z,31.45
2019-03-20T00:34:26.687Z,31.47
2019-03-20T00:35:02.632Z,31.48
2019-03-20T00:35:38.566Z,31.41
2019-03-20T00:36:14.611Z,31.51
2019-03-20T00:36:50.527Z,31.56
2019-03-20T00:37:26.399Z,31.56
2019-03-20T00:38:02.274Z,31.57
2019-03-20T00:38:38.268Z,31.58
2019-03-20T00:39:14.132Z,31.61
2019-03-20T00:39:50.139Z,31.63
2019-03-20T00:40:26.013Z,31.65
2019-03-20T00:41:01.951Z,31.67
2019-03-20T00:41:37.952Z,31.70
2019-03-20T00:42:13.870Z,31.73
2019-03-20T00:42:49.779Z,31.72
2019-03-20T00:43:25.657Z,31.69
2019-03-20T00:44:01.856Z,31.75
2019-03-20T00:44:37.701Z,31.75
2019-03-20T00:45:14.064Z,31.76
2019-03-20T00:45:49.962Z,31.78
2019-03-20T00:46:25.858Z,31.77
2019-03-20T00:47:01.863Z,31.74
2019-03-20T00:47:37.846Z,31.75
2019-03-20T00:48:13.840Z,31.74
2019-03-20T00:48:49.775Z,31.74
2019-03-20T00:49:25.662Z,31.70
2019-03-20T00:50:01.529Z,31.70
2019-03-20T00:50:37.463Z,31.68
2019-03-20T00:51:13.500Z,31.66
2019-03-20T00:51:49.398Z,31.65
2019-03-20T00:52:25.274Z,31.62
2019-03-20T00:53:01.107Z,31.62
2019-03-20T00:53:36.986Z,31.59
2019-03-20T00:54:12.895Z,31.61
2019-03-20T00:54:48.879Z,31.61
2019-03-20T00:55:24.970Z,31.60
2019-03-20T00:56:00.991Z,31.62
2019-03-20T00:56:36.896Z,31.63
2019-03-20T00:57:12.860Z,31.65
2019-03-20T00:57:49.262Z,31.66
2019-03-20T00:58:25.231Z,31.68
2019-03-20T00:59:01.107Z,31.66
2019-03-20T00:59:37.090Z,31.73
2019-03-20T01:00:15.580Z,31.75
2019-03-20T01:00:51.543Z,31.74
2019-03-20T01:01:27.408Z,31.74
2019-03-20T01:02:03.316Z,31.73
2019-03-20T01:02:39.231Z,31.69
2019-03-20T01:03:15.170Z,31.66
2019-03-20T01:03:51.099Z,31.69
2019-03-20T01:04:27.007Z,31.63
2019-03-20T01:05:12.203Z,31.68
2019-03-20T01:05:40.727Z,31.67
2019-03-20T01:06:16.622Z,31.68
2019-03-20T01:06:52.560Z,31.66
2019-03-20T01:07:28.449Z,31.68
2019-03-20T01:08:04.359Z,31.68
2019-03-20T01:08:40.392Z,31.68
2019-03-20T01:09:16.291Z,31.67
2019-03-20T01:09:52.338Z,31.68
2019-03-20T01:10:28.225Z,31.69
2019-03-20T01:11:04.083Z,31.71
2019-03-20T01:11:39.999Z,31.72
2019-03-20T01:12:17.728Z,31.72
2019-03-20T01:12:53.658Z,31.73
2019-03-20T01:13:29.669Z,31.76
2019-03-20T01:14:05.526Z,31.76
2019-03-20T01:14:41.439Z,31.78
2019-03-20T01:15:17.814Z,31.79
2019-03-20T01:15:53.794Z,31.79
2019-03-20T01:16:29.634Z,31.81
2019-03-20T01:17:05.538Z,31.82
2019-03-20T01:17:41.490Z,31.82
2019-03-20T01:18:17.373Z,31.83
2019-03-20T01:18:53.203Z,31.84
2019-03-20T01:19:29.067Z,31.85
2019-03-20T01:20:04.994Z,31.86
2019-03-20T01:20:40.868Z,31.88
2019-03-20T01:21:16.925Z,31.87
2019-03-20T01:21:52.988Z,31.90
2019-03-20T01:22:28.894Z,31.90
2019-03-20T01:23:04.933Z,31.93
2019-03-20T01:23:40.839Z,31.94
2019-03-20T01:24:16.765Z,31.97
2019-03-20T01:24:52.630Z,31.99
2019-03-20T01:25:28.459Z,32.02
2019-03-20T01:26:04.353Z,32.03
2019-03-20T01:26:40.412Z,32.02
2019-03-20T01:27:16.275Z,32.04
2019-03-20T01:27:52.281Z,32.06
2019-03-20T01:28:28.160Z,32.07
2019-03-20T01:29:04.027Z,32.08
2019-03-20T01:29:39.974Z,32.08
2019-03-20T01:30:32.158Z,32.10
2019-03-20T01:31:08.020Z,32.12
2019-03-20T01:31:43.912Z,32.15
2019-03-20T01:32:19.825Z,32.17
2019-03-20T01:32:55.668Z,32.17
2019-03-20T01:33:31.593Z,32.20
2019-03-20T01:34:07.462Z,32.21
2019-03-20T01:34:43.337Z,32.24
2019-03-20T01:35:23.814Z,32.26
2019-03-20T01:35:56.942Z,32.30
2019-03-20T01:36:32.865Z,32.34
2019-03-20T01:37:08.722Z,32.36
2019-03-20T01:37:44.708Z,32.40
2019-03-20T01:38:20.611Z,32.43
2019-03-20T01:38:56.413Z,32.47
2019-03-20T01:39:32.302Z,32.49
2019-03-20T01:40:08.160Z,32.52
2019-03-20T01:40:44.095Z,32.56
2019-03-20T01:41:20.082Z,32.58
2019-03-20T01:41:55.958Z,32.64
2019-03-20T01:42:31.781Z,32.67
2019-03-20T01:43:08.057Z,32.71
2019-03-20T01:43:43.932Z,32.72
2019-03-20T01:44:19.803Z,32.75
2019-03-20T01:44:55.838Z,32.72
2019-03-20T01:45:31.715Z,32.78
2019-03-20T01:46:07.715Z,32.81
2019-03-20T01:46:43.623Z,32.85
2019-03-20T01:47:19.495Z,32.87
2019-03-20T01:47:55.394Z,32.88
2019-03-20T01:48:31.397Z,32.92
2019-03-20T01:49:07.210Z,32.97
2019-03-20T01:49:43.197Z,33.00
2019-03-20T01:50:19.128Z,33.01
2019-03-20T01:50:55.041Z,33.06
2019-03-20T01:51:30.934Z,33.11
2019-03-20T01:52:06.838Z,33.15
2019-03-20T01:52:42.737Z,33.19
2019-03-20T01:53:18.601Z,33.22
2019-03-20T01:53:54.492Z,33.23
2019-03-20T01:54:30.420Z,33.22
2019-03-20T01:55:06.415Z,33.24
2019-03-20T01:55:42.260Z,33.25
2019-03-20T01:56:18.201Z,33.24
2019-03-20T01:56:54.096Z,33.22
2019-03-20T01:57:29.951Z,33.19
2019-03-20T01:58:05.838Z,33.22
2019-03-20T01:58:41.731Z,33.18
2019-03-20T01:59:17.605Z,33.20
2019-03-20T01:59:53.506Z,33.23
2019-03-20T02:00:29.384Z,33.24
2019-03-20T02:01:05.255Z,33.26
2019-03-20T02:01:41.114Z,33.27
2019-03-20T02:02:17.088Z,33.22
2019-03-20T02:02:53.028Z,33.23
2019-03-20T02:03:28.948Z,33.20
2019-03-20T02:04:04.926Z,33.15
2019-03-20T02:04:40.750Z,33.16
2019-03-20T02:05:16.784Z,33.17
2019-03-20T02:05:52.748Z,33.17
2019-03-20T02:06:28.638Z,33.16
2019-03-20T02:07:04.475Z,33.15
2019-03-20T02:07:40.350Z,33.13
2019-03-20T02:08:16.309Z,33.12
2019-03-20T02:08:52.207Z,33.10
2019-03-20T02:09:28.072Z,33.09
2019-03-20T02:10:04.002Z,33.06
2019-03-20T02:10:40.018Z,33.05
2019-03-20T02:11:16.058Z,33.00
2019-03-20T02:11:51.926Z,32.96
2019-03-20T02:12:27.938Z,32.94
2019-03-20T02:13:03.990Z,32.93
2019-03-20T02:13:40.173Z,32.91
2019-03-20T02:14:16.079Z,32.86
2019-03-20T02:14:52.263Z,32.85
2019-03-20T02:15:38.147Z,32.81
2019-03-20T02:16:06.012Z,32.80
2019-03-20T02:16:42.107Z,32.78
2019-03-20T02:17:18.129Z,32.73
2019-03-20T02:17:55.952Z,32.74
2019-03-20T02:18:35.335Z,32.73
2019-03-20T02:19:11.432Z,32.74
2019-03-20T02:19:47.331Z,32.75
2019-03-20T02:20:24.628Z,32.72
2019-03-20T02:21:01.356Z,32.72
2019-03-20T02:21:40.402Z,32.72
2019-03-20T02:22:16.489Z,32.67
2019-03-20T02:22:53.905Z,32.67
2019-03-20T02:23:29.794Z,32.61
2019-03-20T02:24:05.857Z,32.57
2019-03-20T02:24:41.877Z,32.58
2019-03-20T02:25:17.947Z,32.54
2019-03-20T02:25:53.826Z,32.50
2019-03-20T02:26:29.643Z,32.50
2019-03-20T02:27:05.671Z,32.51
2019-03-20T02:27:41.579Z,32.52
2019-03-20T02:28:17.594Z,32.55
2019-03-20T02:28:53.516Z,32.56
2019-03-20T02:29:29.373Z,32.57
2019-03-20T02:30:05.616Z,32.57
2019-03-20T02:30:41.723Z,32.59
2019-03-20T02:31:17.663Z,32.59
2019-03-20T02:31:53.658Z,32.61
2019-03-20T02:32:29.572Z,32.64
2019-03-20T02:33:05.566Z,32.68
2019-03-20T02:33:41.512Z,32.73
2019-03-20T02:34:17.399Z,32.81
2019-03-20T02:34:53.441Z,32.89
2019-03-20T02:35:29.360Z,32.97
2019-03-20T02:36:05.247Z,33.08
2019-03-20T02:36:41.125Z,33.20
2019-03-20T02:37:17.013Z,33.27
2019-03-20T02:37:55.699Z,33.39
2019-03-20T02:38:31.584Z,33.45
2019-03-20T02:39:09.032Z,33.49
2019-03-20T02:39:44.862Z,33.52
2019-03-20T02:40:20.795Z,33.56
2019-03-20T02:40:56.633Z,33.60
2019-03-20T02:41:32.525Z,33.68
2019-03-20T02:42:08.457Z,33.74
2019-03-20T02:42:44.341Z,33.79
2019-03-20T02:43:20.212Z,33.85
2019-03-20T02:43:56.384Z,33.90
2019-03-20T02:44:32.515Z,33.94
2019-03-20T02:45:10.031Z,34.04
2019-03-20T02:45:46.233Z,34.10
2019-03-20T02:46:22.161Z,34.17
2019-03-20T02:46:58.191Z,34.22
2019-03-20T02:47:34.169Z,34.23
2019-03-20T02:48:10.007Z,34.17
2019-03-20T02:48:45.831Z,34.18
2019-03-20T02:49:21.737Z,34.14
2019-03-20T02:49:57.612Z,34.15
2019-03-20T02:50:33.609Z,34.15
2019-03-20T02:51:09.573Z,34.08
2019-03-20T02:51:45.455Z,34.08
2019-03-20T02:52:21.257Z,34.03
2019-03-20T02:52:57.173Z,34.02
2019-03-20T02:53:33.031Z,34.03
2019-03-20T02:54:09.068Z,34.10
2019-03-20T02:54:44.943Z,34.21
2019-03-20T02:55:20.877Z,34.36
2019-03-20T02:55:56.724Z,34.45
2019-03-20T02:56:32.622Z,34.54
2019-03-20T02:57:08.699Z,34.60
2019-03-20T02:57:44.596Z,34.67
2019-03-20T02:58:20.480Z,34.70
2019-03-20T02:58:56.379Z,34.78
2019-03-20T02:59:32.271Z,34.83
2019-03-20T03:00:10.307Z,34.85
2019-03-20T03:00:46.433Z,34.93
2019-03-20T03:01:22.467Z,34.98
2019-03-20T03:01:58.511Z,35.05
2019-03-20T03:02:34.726Z,35.12
2019-03-20T03:03:10.713Z,35.18
2019-03-20T03:03:46.661Z,35.25
2019-03-20T03:04:22.609Z,35.30
2019-03-20T03:04:58.496Z,35.36
2019-03-20T03:05:34.583Z,35.43
2019-03-20T03:06:10.452Z,35.48
2019-03-20T03:06:46.321Z,35.53
2019-03-20T03:07:22.203Z,35.59
2019-03-20T03:07:58.117Z,35.64
2019-03-20T03:08:34.125Z,35.70
2019-03-20T03:09:10.771Z,35.71
2019-03-20T03:09:46.623Z,35.71
2019-03-20T03:10:22.566Z,35.74
2019-03-20T03:10:58.427Z,35.67
2019-03-20T03:11:34.298Z,35.54
2019-03-20T03:12:10.161Z,35.45
2019-03-20T03:12:46.022Z,35.38
2019-03-20T03:13:21.938Z,35.41
2019-03-20T03:13:57.808Z,35.38
2019-03-20T03:14:33.878Z,35.34
2019-03-20T03:15:10.032Z,35.38
2019-03-20T03:15:45.905Z,35.41
2019-03-20T03:16:22.094Z,35.38
2019-03-20T03:16:58.216Z,35.35
2019-03-20T03:17:34.181Z,35.33
2019-03-20T03:18:10.119Z,35.28
2019-03-20T03:18:45.960Z,35.36
2019-03-20T03:19:21.913Z,35.45
2019-03-20T03:19:57.882Z,35.51
2019-03-20T03:20:33.899Z,35.47
2019-03-20T03:21:09.737Z,35.39
2019-03-20T03:21:45.629Z,35.32
2019-03-20T03:22:21.562Z,35.33
2019-03-20T03:22:57.512Z,35.39
2019-03-20T03:23:33.536Z,35.40
2019-03-20T03:24:09.438Z,35.45
2019-03-20T03:24:45.383Z,35.53
2019-03-20T03:25:21.232Z,35.57
2019-03-20T03:25:57.219Z,35.64
2019-03-20T03:26:33.221Z,35.66
2019-03-20T03:27:09.121Z,35.65
2019-03-20T03:27:45.186Z,35.58
2019-03-20T03:28:21.151Z,35.50
2019-03-20T03:28:57.050Z,35.40
2019-03-20T03:29:32.901Z,35.32
2019-03-20T03:30:09.402Z,35.24
2019-03-20T03:30:45.390Z,35.13
2019-03-20T03:31:21.319Z,35.08
2019-03-20T03:31:57.211Z,35.01
2019-03-20T03:32:33.243Z,35.00
2019-03-20T03:33:09.105Z,34.96
2019-03-20T03:33:45.004Z,34.95
2019-03-20T03:34:20.859Z,34.90
2019-03-20T03:34:56.742Z,34.87
2019-03-20T03:35:32.751Z,34.86
2019-03-20T03:36:20.638Z,34.87
2019-03-20T03:36:46.347Z,34.81
2019-03-20T03:37:22.257Z,34.75
2019-03-20T03:37:58.244Z,34.71
2019-03-20T03:38:34.281Z,34.69
2019-03-20T03:39:10.607Z,34.65
2019-03-20T03:39:46.506Z,34.61
2019-03-20T03:40:22.418Z,34.60
2019-03-20T03:40:58.292Z,34.62
2019-03-20T03:41:34.213Z,34.64
2019-03-20T03:42:10.143Z,34.73
2019-03-20T03:42:46.009Z,34.86
2019-03-20T03:43:24.273Z,34.90
2019-03-20T03:43:59.581Z,35.02
2019-03-20T03:44:35.445Z,35.07
2019-03-20T03:45:12.642Z,35.14
2019-03-20T03:45:48.623Z,35.16
2019-03-20T03:46:24.595Z,35.24
2019-03-20T03:47:00.428Z,35.28
2019-03-20T03:47:36.486Z,35.36
2019-03-20T03:48:12.441Z,35.44
2019-03-20T03:48:48.350Z,35.52
2019-03-20T03:49:24.193Z,35.61
2019-03-20T03:50:00.532Z,35.68
2019-03-20T03:50:36.530Z,35.60
2019-03-20T03:51:12.485Z,35.53
2019-03-20T03:51:48.388Z,35.45
2019-03-20T03:52:24.613Z,35.44
2019-03-20T03:53:00.492Z,35.41
2019-03-20T03:53:36.383Z,35.41
2019-03-20T03:54:12.277Z,35.34
2019-03-20T03:54:48.170Z,35.42
2019-03-20T03:55:24.012Z,35.50
2019-03-20T03:55:59.878Z,35.56
2019-03-20T03:56:35.769Z,35.65
2019-03-20T03:57:11.963Z,35.65
2019-03-20T03:57:48.218Z,35.71
2019-03-20T03:58:24.223Z,35.76
2019-03-20T03:59:00.144Z,35.81
2019-03-20T03:59:36.104Z,35.91
2019-03-20T04:00:13.454Z,35.95
2019-03-20T04:00:49.357Z,35.92
2019-03-20T04:01:25.214Z,35.90
2019-03-20T04:02:01.166Z,35.98
2019-03-20T04:02:37.039Z,35.95
2019-03-20T04:03:13.050Z,36.01
2019-03-20T04:03:49.294Z,36.05
2019-03-20T04:04:25.457Z,36.10
2019-03-20T04:05:01.478Z,36.14
2019-03-20T04:05:37.530Z,36.19
2019-03-20T04:06:13.580Z,36.24
2019-03-20T04:06:49.503Z,36.33
2019-03-20T04:07:25.463Z,36.41
2019-03-20T04:08:01.335Z,36.42
2019-03-20T04:08:37.268Z,36.48
2019-03-20T04:09:13.166Z,36.43
2019-03-20T04:09:49.170Z,36.39
2019-03-20T04:10:25.046Z,36.39
2019-03-20T04:11:01.048Z,36.43
2019-03-20T04:11:36.997Z,36.46
2019-03-20T04:12:13.104Z,36.47
2019-03-20T04:12:49.153Z,36.50
2019-03-20T04:13:25.395Z,36.51
2019-03-20T04:14:01.513Z,36.53
2019-03-20T04:14:37.529Z,36.56
2019-03-20T04:15:14.142Z,36.51
2019-03-20T04:15:50.310Z,36.52
2019-03-20T04:16:26.224Z,36.49
2019-03-20T04:17:02.097Z,36.52
2019-03-20T04:17:38.036Z,36.53
2019-03-20T04:18:13.969Z,36.59
2019-03-20T04:18:49.805Z,36.59
2019-03-20T04:19:25.652Z,36.59
2019-03-20T04:20:01.553Z,36.61
2019-03-20T04:20:37.560Z,36.65
2019-03-20T04:21:13.375Z,36.72
2019-03-20T04:21:49.264Z,36.78
2019-03-20T04:22:25.292Z,36.82
2019-03-20T04:23:01.252Z,36.84
2019-03-20T04:23:37.140Z,36.80
2019-03-20T04:24:13.016Z,36.85
2019-03-20T04:24:48.903Z,36.84
2019-03-20T04:25:24.741Z,36.76
2019-03-20T04:26:00.626Z,36.67
2019-03-20T04:26:36.508Z,36.64
2019-03-20T04:27:12.492Z,36.59
2019-03-20T04:27:48.450Z,36.53
2019-03-20T04:28:24.323Z,36.45
2019-03-20T04:29:00.235Z,36.41
2019-03-20T04:29:36.146Z,36.36
2019-03-20T04:30:12.589Z,36.28
2019-03-20T04:30:48.625Z,36.23
2019-03-20T04:31:24.498Z,36.18
2019-03-20T04:32:00.350Z,36.09
2019-03-20T04:32:36.256Z,36.04
2019-03-20T04:33:12.117Z,36.00
2019-03-20T04:33:47.986Z,35.98
2019-03-20T04:34:23.895Z,35.97
2019-03-20T04:34:59.851Z,35.93
2019-03-20T04:35:35.688Z,35.91
2019-03-20T04:36:11.592Z,35.88
2019-03-20T04:36:48.344Z,35.84
2019-03-20T04:37:24.296Z,35.81
2019-03-20T04:38:00.195Z,35.78
2019-03-20T04:38:36.037Z,35.77
2019-03-20T04:39:12.030Z,35.73
2019-03-20T04:39:47.919Z,35.69
2019-03-20T04:40:24.054Z,35.68
2019-03-20T04:40:59.925Z,35.65
2019-03-20T04:41:35.970Z,35.65
2019-03-20T04:42:11.892Z,35.62
2019-03-20T04:42:47.736Z,35.55
2019-03-20T04:43:23.631Z,35.51
2019-03-20T04:43:59.579Z,35.46
2019-03-20T04:44:35.725Z,35.43
2019-03-20T04:45:12.799Z,35.35
2019-03-20T04:45:48.767Z,35.33
2019-03-20T04:46:24.663Z,35.25
2019-03-20T04:47:00.454Z,35.22
2019-03-20T04:47:36.324Z,35.19
2019-03-20T04:48:12.272Z,35.14
2019-03-20T04:48:48.242Z,35.09
2019-03-20T04:49:24.224Z,35.05
2019-03-20T04:50:00.093Z,35.01
2019-03-20T04:50:35.967Z,34.95
2019-03-20T04:51:11.913Z,34.94
2019-03-20T04:51:47.786Z,34.87
2019-03-20T04:52:23.744Z,34.84
2019-03-20T04:52:59.674Z,34.78
2019-03-20T04:53:35.553Z,34.72
2019-03-20T04:54:11.459Z,34.63
2019-03-20T04:54:47.260Z,34.61
2019-03-20T04:55:23.126Z,34.56
2019-03-20T04:55:59.036Z,34.47
2019-03-20T04:56:34.910Z,34.41
2019-03-20T04:57:10.899Z,34.39
2019-03-20T04:57:46.751Z,34.33
2019-03-20T04:58:22.738Z,34.32
2019-03-20T04:58:58.619Z,34.28
2019-03-20T04:59:34.529Z,34.23
2019-03-20T05:00:12.736Z,34.20
2019-03-20T05:00:48.623Z,34.13
2019-03-20T05:01:24.520Z,34.09
2019-03-20T05:02:00.540Z,34.02
2019-03-20T05:02:36.429Z,33.98
2019-03-20T05:03:12.261Z,33.87
2019-03-20T05:03:48.099Z,33.75
2019-03-20T05:04:24.134Z,33.61
2019-03-20T05:05:00.052Z,33.51
2019-03-20T05:05:35.921Z,33.32
2019-03-20T05:06:11.811Z,33.23
2019-03-20T05:06:57.897Z,33.04
2019-03-20T05:07:25.347Z,32.95
2019-03-20T05:08:01.203Z,32.82
2019-03-20T05:08:37.079Z,32.72
2019-03-20T05:09:12.933Z,32.51
2019-03-20T05:09:48.859Z,32.28
2019-03-20T05:10:24.742Z,32.16
2019-03-20T05:11:00.603Z,31.98
2019-03-20T05:11:36.548Z,31.71
2019-03-20T05:12:12.432Z,31.48
2019-03-20T05:12:48.404Z,31.31
2019-03-20T05:13:24.251Z,31.04
2019-03-20T05:14:00.120Z,30.58
2019-03-20T05:14:36.065Z,30.53
2019-03-20T05:15:12.218Z,30.39
2019-03-20T05:15:48.079Z,30.32
2019-03-20T05:16:23.971Z,30.32
2019-03-20T05:16:59.862Z,30.20
2019-03-20T05:17:35.742Z,30.09
2019-03-20T05:18:11.616Z,30.09
2019-03-20T05:18:47.490Z,30.00
2019-03-20T05:19:23.382Z,30.00
2019-03-20T05:19:59.279Z,29.97
2019-03-20T05:20:35.186Z,29.97
2019-03-20T05:21:11.052Z,29.92
2019-03-20T05:21:47.079Z,29.89
2019-03-20T05:22:22.992Z,29.85
2019-03-20T05:22:58.862Z,29.80
2019-03-20T05:23:34.745Z,29.77
2019-03-20T05:24:10.704Z,29.74
2019-03-20T05:24:46.676Z,29.72
2019-03-20T05:25:22.647Z,29.71
2019-03-20T05:25:58.530Z,29.71
2019-03-20T05:26:34.394Z,29.70
2019-03-20T05:27:10.272Z,29.70
2019-03-20T05:27:46.100Z,29.71
2019-03-20T05:28:22.099Z,29.73
2019-03-20T05:28:58.001Z,29.70
2019-03-20T05:29:33.884Z,29.66
2019-03-20T05:30:10.284Z,29.68
2019-03-20T05:30:46.158Z,29.64
2019-03-20T05:31:22.031Z,29.60
2019-03-20T05:31:58.024Z,29.65
2019-03-20T05:32:33.913Z,29.67
2019-03-20T05:33:09.770Z,29.71
2019-03-20T05:33:45.642Z,29.74
2019-03-20T05:34:21.666Z,29.75
2019-03-20T05:34:57.534Z,29.78
2019-03-20T05:35:33.400Z,29.80
2019-03-20T05:36:09.238Z,29.82
2019-03-20T05:36:45.128Z,29.84
2019-03-20T05:37:20.960Z,29.86
2019-03-20T05:37:56.820Z,29.87
2019-03-20T05:38:32.658Z,29.87
2019-03-20T05:39:09.894Z,29.91
2019-03-20T05:39:45.815Z,29.92
2019-03-20T05:40:21.701Z,29.97
2019-03-20T05:40:57.752Z,29.97
2019-03-20T05:41:33.623Z,30.02
2019-03-20T05:42:09.497Z,30.08
2019-03-20T05:42:45.453Z,30.08
2019-03-20T05:43:21.287Z,30.12
2019-03-20T05:43:57.155Z,30.13
2019-03-20T05:44:33.005Z,30.20
2019-03-20T05:45:09.936Z,30.24
2019-03-20T05:45:45.856Z,30.25
2019-03-20T05:46:21.717Z,30.38
2019-03-20T05:46:57.608Z,30.42
2019-03-20T05:47:33.501Z,30.42
2019-03-20T05:48:09.353Z,30.52
2019-03-20T05:48:45.234Z,30.52
2019-03-20T05:49:21.126Z,30.55
2019-03-20T05:49:57.013Z,30.55
2019-03-20T05:50:32.877Z,30.63
2019-03-20T05:51:08.878Z,30.70
2019-03-20T05:51:44.753Z,30.70
2019-03-20T05:52:20.637Z,30.73
2019-03-20T05:52:56.493Z,30.75
2019-03-20T05:53:32.430Z,30.81
2019-03-20T05:54:08.411Z,30.81
2019-03-20T05:54:44.284Z,30.82
2019-03-20T05:55:20.175Z,30.91
2019-03-20T05:55:56.086Z,30.91
2019-03-20T05:56:32.079Z,30.90
2019-03-20T05:57:08.088Z,30.99
2019-03-20T05:57:43.953Z,31.03
2019-03-20T05:58:19.825Z,31.03
2019-03-20T05:58:55.831Z,30.99
2019-03-20T05:59:31.681Z,31.09
2019-03-20T06:00:11.371Z,31.14
2019-03-20T06:00:47.217Z,31.15
2019-03-20T06:01:23.207Z,31.25
2019-03-20T06:01:59.068Z,31.24
2019-03-20T06:02:34.955Z,31.24
2019-03-20T06:03:10.819Z,31.33
2019-03-20T06:03:46.866Z,31.33
2019-03-20T06:04:22.811Z,31.36
2019-03-20T06:04:58.875Z,31.35
2019-03-20T06:05:34.760Z,31.35
2019-03-20T06:06:10.582Z,31.38
2019-03-20T06:06:46.444Z,31.42
2019-03-20T06:07:22.308Z,31.39
2019-03-20T06:07:58.178Z,31.47
2019-03-20T06:08:34.143Z,31.47
2019-03-20T06:09:10.343Z,31.50
2019-03-20T06:09:46.165Z,31.53
2019-03-20T06:10:22.058Z,31.57
2019-03-20T06:10:57.931Z,31.60
2019-03-20T06:11:33.788Z,31.64
2019-03-20T06:12:09.623Z,31.67
2019-03-20T06:12:45.515Z,31.68
2019-03-20T06:13:21.329Z,31.68
2019-03-20T06:13:57.321Z,31.70
2019-03-20T06:14:33.342Z,31.72
2019-03-20T06:15:09.657Z,31.73
2019-03-20T06:15:45.495Z,31.75
2019-03-20T06:16:21.327Z,31.78
2019-03-20T06:16:57.302Z,31.81
2019-03-20T06:17:33.206Z,31.81
2019-03-20T06:18:09.106Z,31.83
2019-03-20T06:18:44.992Z,31.87
2019-03-20T06:19:20.902Z,31.89
2019-03-20T06:19:56.794Z,31.92
2019-03-20T06:20:33.823Z,31.96
2019-03-20T06:21:09.964Z,31.99
2019-03-20T06:21:45.834Z,32.02
2019-03-20T06:22:22.654Z,32.05
2019-03-20T06:22:58.620Z,32.09
2019-03-20T06:23:34.517Z,32.11
2019-03-20T06:24:10.451Z,32.16
2019-03-20T06:24:46.409Z,32.19
2019-03-20T06:25:22.375Z,32.22
2019-03-20T06:25:58.243Z,32.24
2019-03-20T06:26:34.102Z,32.26
2019-03-20T06:27:09.959Z,32.31
2019-03-20T06:27:45.867Z,32.35
2019-03-20T06:28:21.708Z,32.35
2019-03-20T06:28:57.664Z,32.39
2019-03-20T06:29:33.533Z,32.41
2019-03-20T06:30:11.097Z,32.44
2019-03-20T06:30:46.988Z,32.48
2019-03-20T06:31:22.925Z,32.52
2019-03-20T06:31:58.811Z,32.54
2019-03-20T06:32:34.673Z,32.56
2019-03-20T06:33:10.651Z,32.59
2019-03-20T06:33:46.602Z,32.62
2019-03-20T06:34:22.444Z,32.65
2019-03-20T06:34:58.345Z,32.68
2019-03-20T06:35:34.286Z,32.71
2019-03-20T06:36:10.134Z,32.73
2019-03-20T06:36:46.093Z,32.75
2019-03-20T06:37:31.982Z,32.78
2019-03-20T06:37:59.764Z,32.81
2019-03-20T06:38:35.623Z,32.83
2019-03-20T06:39:11.489Z,32.86
2019-03-20T06:39:47.400Z,32.88
2019-03-20T06:40:23.269Z,32.92
2019-03-20T06:40:59.141Z,32.93
2019-03-20T06:41:35.037Z,32.96
2019-03-20T06:42:10.947Z,32.97
2019-03-20T06:42:46.899Z,32.98
2019-03-20T06:43:22.749Z,32.97
2019-03-20T06:43:58.713Z,32.96
2019-03-20T06:44:34.545Z,32.96
2019-03-20T06:45:11.242Z,32.97
2019-03-20T06:45:47.236Z,32.98
2019-03-20T06:46:23.099Z,33.01
2019-03-20T06:46:59.090Z,33.04
2019-03-20T06:47:34.982Z,33.05
2019-03-20T06:48:10.844Z,33.12
2019-03-20T06:48:46.729Z,33.20
2019-03-20T06:49:22.644Z,33.27
2019-03-20T06:49:58.504Z,33.38
2019-03-20T06:50:34.367Z,33.48
2019-03-20T06:51:10.428Z,33.58
2019-03-20T06:51:46.334Z,33.63
2019-03-20T06:52:22.209Z,33.71
2019-03-20T06:52:58.050Z,33.80
2019-03-20T06:53:33.874Z,33.88
2019-03-20T06:54:09.695Z,33.95
2019-03-20T06:54:45.530Z,34.03
2019-03-20T06:55:21.509Z,34.13
2019-03-20T06:55:57.352Z,34.21
2019-03-20T06:56:33.233Z,34.25
2019-03-20T06:57:09.095Z,34.31
2019-03-20T06:57:45.094Z,34.38
2019-03-20T06:58:20.927Z,34.46
2019-03-20T06:59:34.784Z,34.53
2019-03-20T07:00:47.748Z,34.60
2019-03-20T07:01:29.458Z,34.69
2019-03-20T07:02:05.866Z,34.80
2019-03-20T07:02:44.595Z,34.87
2019-03-20T07:03:30.282Z,34.91
2019-03-20T07:04:14.926Z,34.96
2019-03-20T07:05:00.726Z,35.00
2019-03-20T07:06:02.773Z,35.07
2019-03-20T07:07:02.909Z,35.14
2019-03-20T07:07:44.271Z,35.18
2019-03-20T07:08:18.403Z,35.26
2019-03-20T07:08:58.126Z,35.29
2019-03-20T07:10:04.015Z,35.33
2019-03-20T07:11:02.307Z,35.38
2019-03-20T07:11:41.552Z,35.41
2019-03-20T07:12:17.543Z,35.46
2019-03-20T07:12:53.421Z,35.50
2019-03-20T07:13:29.255Z,35.54
2019-03-20T07:14:05.116Z,35.57
2019-03-20T07:14:41.081Z,35.60
2019-03-20T07:15:17.035Z,35.63
2019-03-20T07:15:52.877Z,35.68
2019-03-20T07:16:28.720Z,35.70
2019-03-20T07:17:04.778Z,35.74
2019-03-20T07:17:40.750Z,35.77
2019-03-20T07:18:16.612Z,35.78
2019-03-20T07:18:52.522Z,35.81
2019-03-20T07:19:28.499Z,35.84
2019-03-20T07:20:04.564Z,35.86
2019-03-20T07:20:40.452Z,35.88
2019-03-20T07:21:18.653Z,35.91
2019-03-20T07:21:54.001Z,35.90
2019-03-20T07:22:29.999Z,35.94
2019-03-20T07:23:05.864Z,35.79
2019-03-20T07:23:41.712Z,35.70
2019-03-20T07:24:17.583Z,35.59
2019-03-20T07:24:53.390Z,35.45
2019-03-20T07:25:29.185Z,35.49
2019-03-20T07:26:05.232Z,35.51
2019-03-20T07:26:41.802Z,35.52
2019-03-20T07:27:17.777Z,35.45
2019-03-20T07:27:53.619Z,35.40
2019-03-20T07:28:29.506Z,35.30
2019-03-20T07:29:05.418Z,35.23
2019-03-20T07:29:41.894Z,35.18
2019-03-20T07:30:17.921Z,35.13
2019-03-20T07:30:53.829Z,35.07
2019-03-20T07:31:29.703Z,34.98
2019-03-20T07:32:05.690Z,34.92
2019-03-20T07:32:41.520Z,34.87
2019-03-20T07:33:17.395Z,34.84
2019-03-20T07:33:53.429Z,34.77
2019-03-20T07:34:29.435Z,34.74
2019-03-20T07:35:05.460Z,34.73
2019-03-20T07:35:41.481Z,34.76
2019-03-20T07:36:17.330Z,34.86
2019-03-20T07:36:53.197Z,34.94
2019-03-20T07:37:29.044Z,35.03
2019-03-20T07:38:04.885Z,35.08
2019-03-20T07:38:40.724Z,35.15
2019-03-20T07:39:16.702Z,35.20
2019-03-20T07:39:52.601Z,35.24
2019-03-20T07:40:28.468Z,35.31
2019-03-20T07:41:04.488Z,35.39
2019-03-20T07:41:40.355Z,35.43
2019-03-20T07:42:16.205Z,35.49
2019-03-20T07:42:52.055Z,35.50
2019-03-20T07:43:27.906Z,35.51
2019-03-20T07:44:03.774Z,35.55
2019-03-20T07:44:39.731Z,35.63
2019-03-20T07:45:15.620Z,35.67
2019-03-20T07:45:51.461Z,35.73
2019-03-20T07:46:27.489Z,35.79
2019-03-20T07:47:03.293Z,35.85
2019-03-20T07:47:39.165Z,35.88